sensor_id;sensor_type;location;lat;lon;timestamp;P1;durP1;ratioP1;P2;durP2;ratioP2
6288;SDS011;3177;49.880;8.836;2023-08-08T00:01:37;4.63;;;2.00;;
6288;SDS011;3177;49.880;8.836;2023-08-08T00:04:07;2.10;;;2.00;;
6288;SDS011;3177;49.880;8.836;2023-08-08T00:06:35;2.07;;;1.87;;
6288;SDS011;3177;49.880;8.836;2023-08-08T00:09:02;4.77;;;2.20;;
6288;SDS011;3177;49.880;8.836;2023-08-08T00:11:30;2.13;;;1.93;;
6288;SDS011;3177;49.880;8.836;2023-08-08T00:13:58;2.03;;;1.87;;
6288;SDS011;3177;49.880;8.836;2023-08-08T00:16:25;3.20;;;2.10;;
6288;SDS011;3177;49.880;8.836;2023-08-08T00:18:52;2.20;;;2.00;;
6288;SDS011;3177;49.880;8.836;2023-08-08T00:21:19;2.47;;;2.27;;
6288;SDS011;3177;49.880;8.836;2023-08-08T00:23:46;5.00;;;2.10;;
6288;SDS011;3177;49.880;8.836;2023-08-08T00:26:13;2.60;;;2.20;;
6288;SDS011;3177;49.880;8.836;2023-08-08T00:28:42;3.60;;;2.23;;
6288;SDS011;3177;49.880;8.836;2023-08-08T00:31:09;5.93;;;2.53;;
6288;SDS011;3177;49.880;8.836;2023-08-08T00:33:36;3.70;;;2.30;;
6288;SDS011;3177;49.880;8.836;2023-08-08T00:36:03;3.70;;;2.40;;
6288;SDS011;3177;49.880;8.836;2023-08-08T00:38:30;2.37;;;2.20;;
6288;SDS011;3177;49.880;8.836;2023-08-08T00:40:57;2.10;;;2.00;;
6288;SDS011;3177;49.880;8.836;2023-08-08T00:43:24;2.07;;;1.97;;
6288;SDS011;3177;49.880;8.836;2023-08-08T00:45:53;5.27;;;2.33;;
6288;SDS011;3177;49.880;8.836;2023-08-08T00:48:20;2.73;;;2.47;;
6288;SDS011;3177;49.880;8.836;2023-08-08T00:50:47;2.73;;;2.00;;
6288;SDS011;3177;49.880;8.836;2023-08-08T00:53:15;4.90;;;2.03;;
6288;SDS011;3177;49.880;8.836;2023-08-08T00:55:42;2.13;;;1.93;;
6288;SDS011;3177;49.880;8.836;2023-08-08T00:58:09;3.20;;;2.33;;
6288;SDS011;3177;49.880;8.836;2023-08-08T01:00:36;2.27;;;2.07;;
6288;SDS011;3177;49.880;8.836;2023-08-08T01:03:05;2.97;;;1.97;;
6288;SDS011;3177;49.880;8.836;2023-08-08T01:05:33;2.00;;;1.80;;
6288;SDS011;3177;49.880;8.836;2023-08-08T01:08:03;2.37;;;1.97;;
6288;SDS011;3177;49.880;8.836;2023-08-08T01:10:32;2.60;;;2.07;;
6288;SDS011;3177;49.880;8.836;2023-08-08T01:13:02;4.20;;;2.00;;
6288;SDS011;3177;49.880;8.836;2023-08-08T01:15:30;2.17;;;2.07;;
6288;SDS011;3177;49.880;8.836;2023-08-08T01:18:00;2.40;;;2.17;;
6288;SDS011;3177;49.880;8.836;2023-08-08T01:20:30;7.60;;;2.27;;
6288;SDS011;3177;49.880;8.836;2023-08-08T01:22:58;2.40;;;2.20;;
6288;SDS011;3177;49.880;8.836;2023-08-08T01:25:31;2.40;;;2.10;;
6288;SDS011;3177;49.880;8.836;2023-08-08T01:27:59;2.17;;;2.00;;
6288;SDS011;3177;49.880;8.836;2023-08-08T01:30:26;2.30;;;2.10;;
6288;SDS011;3177;49.880;8.836;2023-08-08T01:32:53;2.27;;;2.10;;
6288;SDS011;3177;49.880;8.836;2023-08-08T01:35:20;2.33;;;2.13;;
6288;SDS011;3177;49.880;8.836;2023-08-08T01:37:49;2.10;;;2.00;;
6288;SDS011;3177;49.880;8.836;2023-08-08T01:40:17;2.93;;;2.23;;
6288;SDS011;3177;49.880;8.836;2023-08-08T01:42:46;2.87;;;1.97;;
6288;SDS011;3177;49.880;8.836;2023-08-08T01:45:14;2.23;;;2.03;;
6288;SDS011;3177;49.880;8.836;2023-08-08T01:47:41;2.40;;;2.20;;
6288;SDS011;3177;49.880;8.836;2023-08-08T01:50:09;1.90;;;1.80;;
6288;SDS011;3177;49.880;8.836;2023-08-08T01:52:36;2.20;;;2.10;;
6288;SDS011;3177;49.880;8.836;2023-08-08T01:55:03;2.47;;;2.10;;
6288;SDS011;3177;49.880;8.836;2023-08-08T01:57:30;2.83;;;2.07;;
6288;SDS011;3177;49.880;8.836;2023-08-08T01:59:59;1.83;;;1.73;;
6288;SDS011;3177;49.880;8.836;2023-08-08T02:02:26;1.90;;;1.80;;
6288;SDS011;3177;49.880;8.836;2023-08-08T02:04:53;1.93;;;1.83;;
6288;SDS011;3177;49.880;8.836;2023-08-08T02:07:20;1.80;;;1.70;;
6288;SDS011;3177;49.880;8.836;2023-08-08T02:09:47;1.90;;;1.80;;
6288;SDS011;3177;49.880;8.836;2023-08-08T02:12:15;2.67;;;1.63;;
6288;SDS011;3177;49.880;8.836;2023-08-08T02:14:42;2.43;;;1.90;;
6288;SDS011;3177;49.880;8.836;2023-08-08T02:17:11;2.30;;;2.10;;
6288;SDS011;3177;49.880;8.836;2023-08-08T02:19:38;3.93;;;1.73;;
6288;SDS011;3177;49.880;8.836;2023-08-08T02:22:05;2.07;;;1.93;;
6288;SDS011;3177;49.880;8.836;2023-08-08T02:24:32;2.60;;;1.90;;
6288;SDS011;3177;49.880;8.836;2023-08-08T02:26:59;1.90;;;1.80;;
6288;SDS011;3177;49.880;8.836;2023-08-08T02:29:26;2.27;;;1.80;;
6288;SDS011;3177;49.880;8.836;2023-08-08T02:31:53;1.80;;;1.70;;
6288;SDS011;3177;49.880;8.836;2023-08-08T02:34:21;2.03;;;1.90;;
6288;SDS011;3177;49.880;8.836;2023-08-08T02:36:49;2.20;;;1.73;;
6288;SDS011;3177;49.880;8.836;2023-08-08T02:39:16;1.70;;;1.60;;
6288;SDS011;3177;49.880;8.836;2023-08-08T02:41:43;1.97;;;1.80;;
6288;SDS011;3177;49.880;8.836;2023-08-08T02:44:10;2.30;;;1.70;;
6288;SDS011;3177;49.880;8.836;2023-08-08T02:46:37;1.93;;;1.60;;
6288;SDS011;3177;49.880;8.836;2023-08-08T02:49:04;2.00;;;1.90;;
6288;SDS011;3177;49.880;8.836;2023-08-08T02:51:32;2.07;;;1.87;;
6288;SDS011;3177;49.880;8.836;2023-08-08T02:53:59;1.83;;;1.70;;
6288;SDS011;3177;49.880;8.836;2023-08-08T02:56:26;1.97;;;1.80;;
6288;SDS011;3177;49.880;8.836;2023-08-08T02:58:54;1.80;;;1.70;;
6288;SDS011;3177;49.880;8.836;2023-08-08T03:01:21;1.83;;;1.73;;
6288;SDS011;3177;49.880;8.836;2023-08-08T03:03:48;1.57;;;1.50;;
6288;SDS011;3177;49.880;8.836;2023-08-08T03:06:15;1.73;;;1.63;;
6288;SDS011;3177;49.880;8.836;2023-08-08T03:08:43;1.47;;;1.40;;
6288;SDS011;3177;49.880;8.836;2023-08-08T03:11:10;1.80;;;1.70;;
6288;SDS011;3177;49.880;8.836;2023-08-08T03:13:37;1.90;;;1.73;;
6288;SDS011;3177;49.880;8.836;2023-08-08T03:16:04;1.60;;;1.50;;
6288;SDS011;3177;49.880;8.836;2023-08-08T03:18:31;2.57;;;1.80;;
6288;SDS011;3177;49.880;8.836;2023-08-08T03:20:58;1.80;;;1.70;;
6288;SDS011;3177;49.880;8.836;2023-08-08T03:23:25;1.70;;;1.60;;
6288;SDS011;3177;49.880;8.836;2023-08-08T03:25:54;2.93;;;1.90;;
6288;SDS011;3177;49.880;8.836;2023-08-08T03:28:21;2.20;;;1.70;;
6288;SDS011;3177;49.880;8.836;2023-08-08T03:30:48;2.00;;;1.90;;
6288;SDS011;3177;49.880;8.836;2023-08-08T03:33:15;3.43;;;1.90;;
6288;SDS011;3177;49.880;8.836;2023-08-08T03:35:42;1.83;;;1.73;;
6288;SDS011;3177;49.880;8.836;2023-08-08T03:38:09;4.17;;;1.90;;
6288;SDS011;3177;49.880;8.836;2023-08-08T03:40:36;2.10;;;1.90;;
6288;SDS011;3177;49.880;8.836;2023-08-08T03:43:05;1.70;;;1.60;;
6288;SDS011;3177;49.880;8.836;2023-08-08T03:45:32;2.17;;;2.00;;
6288;SDS011;3177;49.880;8.836;2023-08-08T03:47:59;3.87;;;1.80;;
6288;SDS011;3177;49.880;8.836;2023-08-08T03:50:26;2.50;;;1.80;;
6288;SDS011;3177;49.880;8.836;2023-08-08T03:52:53;3.43;;;1.73;;
6288;SDS011;3177;49.880;8.836;2023-08-08T03:55:20;3.60;;;1.73;;
6288;SDS011;3177;49.880;8.836;2023-08-08T03:57:47;2.23;;;2.03;;
6288;SDS011;3177;49.880;8.836;2023-08-08T04:00:16;1.80;;;1.70;;
6288;SDS011;3177;49.880;8.836;2023-08-08T04:02:43;2.83;;;1.90;;
6288;SDS011;3177;49.880;8.836;2023-08-08T04:05:10;3.70;;;2.10;;
6288;SDS011;3177;49.880;8.836;2023-08-08T04:07:37;2.23;;;2.00;;
6288;SDS011;3177;49.880;8.836;2023-08-08T04:10:05;2.90;;;1.90;;
6288;SDS011;3177;49.880;8.836;2023-08-08T04:12:32;1.87;;;1.70;;
6288;SDS011;3177;49.880;8.836;2023-08-08T04:14:59;3.00;;;1.60;;
6288;SDS011;3177;49.880;8.836;2023-08-08T04:17:30;1.70;;;1.60;;
6288;SDS011;3177;49.880;8.836;2023-08-08T04:19:57;2.33;;;1.93;;
6288;SDS011;3177;49.880;8.836;2023-08-08T04:22:24;2.07;;;1.80;;
6288;SDS011;3177;49.880;8.836;2023-08-08T04:24:51;1.90;;;1.80;;
6288;SDS011;3177;49.880;8.836;2023-08-08T04:27:18;4.10;;;2.00;;
6288;SDS011;3177;49.880;8.836;2023-08-08T04:29:45;2.40;;;2.00;;
6288;SDS011;3177;49.880;8.836;2023-08-08T04:32:12;2.77;;;1.87;;
6288;SDS011;3177;49.880;8.836;2023-08-08T04:34:40;2.57;;;2.10;;
6288;SDS011;3177;49.880;8.836;2023-08-08T04:37:07;2.40;;;2.20;;
6288;SDS011;3177;49.880;8.836;2023-08-08T04:39:34;2.40;;;2.20;;
6288;SDS011;3177;49.880;8.836;2023-08-08T04:42:02;2.53;;;2.13;;
6288;SDS011;3177;49.880;8.836;2023-08-08T04:44:29;6.33;;;2.30;;
6288;SDS011;3177;49.880;8.836;2023-08-08T04:46:57;4.37;;;2.70;;
6288;SDS011;3177;49.880;8.836;2023-08-08T04:49:24;8.03;;;2.00;;
6288;SDS011;3177;49.880;8.836;2023-08-08T04:51:52;3.80;;;2.10;;
6288;SDS011;3177;49.880;8.836;2023-08-08T04:54:20;1.97;;;1.80;;
6288;SDS011;3177;49.880;8.836;2023-08-08T04:56:47;3.93;;;2.20;;
6288;SDS011;3177;49.880;8.836;2023-08-08T04:59:14;2.03;;;1.93;;
6288;SDS011;3177;49.880;8.836;2023-08-08T05:01:41;2.47;;;2.27;;
6288;SDS011;3177;49.880;8.836;2023-08-08T05:04:08;2.30;;;2.10;;
6288;SDS011;3177;49.880;8.836;2023-08-08T05:06:35;2.60;;;2.30;;
6288;SDS011;3177;49.880;8.836;2023-08-08T05:09:04;2.40;;;2.20;;
6288;SDS011;3177;49.880;8.836;2023-08-08T05:11:34;3.53;;;2.00;;
6288;SDS011;3177;49.880;8.836;2023-08-08T05:14:01;2.93;;;2.10;;
6288;SDS011;3177;49.880;8.836;2023-08-08T05:16:28;6.00;;;2.20;;
6288;SDS011;3177;49.880;8.836;2023-08-08T05:18:55;2.37;;;2.10;;
6288;SDS011;3177;49.880;8.836;2023-08-08T05:21:22;1.70;;;1.60;;
6288;SDS011;3177;49.880;8.836;2023-08-08T05:23:49;2.47;;;2.20;;
6288;SDS011;3177;49.880;8.836;2023-08-08T05:26:18;3.33;;;2.13;;
6288;SDS011;3177;49.880;8.836;2023-08-08T05:28:45;2.13;;;2.00;;
6288;SDS011;3177;49.880;8.836;2023-08-08T05:31:12;2.53;;;2.00;;
6288;SDS011;3177;49.880;8.836;2023-08-08T05:33:39;1.90;;;1.80;;
6288;SDS011;3177;49.880;8.836;2023-08-08T05:36:06;2.47;;;1.97;;
6288;SDS011;3177;49.880;8.836;2023-08-08T05:38:33;3.10;;;2.07;;
6288;SDS011;3177;49.880;8.836;2023-08-08T05:41:00;4.60;;;2.10;;
6288;SDS011;3177;49.880;8.836;2023-08-08T05:43:29;2.20;;;2.00;;
6288;SDS011;3177;49.880;8.836;2023-08-08T05:45:56;2.23;;;2.03;;
6288;SDS011;3177;49.880;8.836;2023-08-08T05:48:23;5.97;;;2.07;;
6288;SDS011;3177;49.880;8.836;2023-08-08T05:50:51;4.40;;;2.10;;
6288;SDS011;3177;49.880;8.836;2023-08-08T05:53:18;3.03;;;1.90;;
6288;SDS011;3177;49.880;8.836;2023-08-08T05:55:45;2.10;;;1.70;;
6288;SDS011;3177;49.880;8.836;2023-08-08T05:58:12;4.30;;;2.10;;
6288;SDS011;3177;49.880;8.836;2023-08-08T06:00:41;3.10;;;1.83;;
6288;SDS011;3177;49.880;8.836;2023-08-08T06:03:08;2.47;;;2.20;;
6288;SDS011;3177;49.880;8.836;2023-08-08T06:05:35;1.67;;;1.57;;
6288;SDS011;3177;49.880;8.836;2023-08-08T06:08:03;3.53;;;1.90;;
6288;SDS011;3177;49.880;8.836;2023-08-08T06:10:32;2.30;;;2.10;;
6288;SDS011;3177;49.880;8.836;2023-08-08T06:13:00;2.57;;;1.90;;
6288;SDS011;3177;49.880;8.836;2023-08-08T06:15:27;2.00;;;1.80;;
6288;SDS011;3177;49.880;8.836;2023-08-08T06:17:55;3.00;;;2.00;;
6288;SDS011;3177;49.880;8.836;2023-08-08T06:20:22;2.87;;;1.80;;
6288;SDS011;3177;49.880;8.836;2023-08-08T06:22:50;2.40;;;1.63;;
6288;SDS011;3177;49.880;8.836;2023-08-08T06:25:17;2.10;;;1.90;;
6288;SDS011;3177;49.880;8.836;2023-08-08T06:27:44;2.97;;;1.93;;
6288;SDS011;3177;49.880;8.836;2023-08-08T06:30:11;4.70;;;2.13;;
6288;SDS011;3177;49.880;8.836;2023-08-08T06:32:38;1.63;;;1.53;;
6288;SDS011;3177;49.880;8.836;2023-08-08T06:35:07;2.80;;;1.60;;
6288;SDS011;3177;49.880;8.836;2023-08-08T06:37:34;2.50;;;1.70;;
6288;SDS011;3177;49.880;8.836;2023-08-08T06:40:01;2.03;;;1.73;;
6288;SDS011;3177;49.880;8.836;2023-08-08T06:42:28;2.97;;;1.90;;
6288;SDS011;3177;49.880;8.836;2023-08-08T06:44:55;4.70;;;1.80;;
6288;SDS011;3177;49.880;8.836;2023-08-08T06:47:22;1.83;;;1.73;;
6288;SDS011;3177;49.880;8.836;2023-08-08T06:49:49;3.20;;;2.00;;
6288;SDS011;3177;49.880;8.836;2023-08-08T06:52:18;2.17;;;1.80;;
6288;SDS011;3177;49.880;8.836;2023-08-08T06:54:45;1.60;;;1.50;;
6288;SDS011;3177;49.880;8.836;2023-08-08T06:57:12;5.07;;;1.60;;
6288;SDS011;3177;49.880;8.836;2023-08-08T06:59:39;3.53;;;2.07;;
6288;SDS011;3177;49.880;8.836;2023-08-08T07:02:06;1.70;;;1.50;;
6288;SDS011;3177;49.880;8.836;2023-08-08T07:04:35;1.67;;;1.57;;
6288;SDS011;3177;49.880;8.836;2023-08-08T07:07:02;1.77;;;1.50;;
6288;SDS011;3177;49.880;8.836;2023-08-08T07:09:31;2.80;;;1.80;;
6288;SDS011;3177;49.880;8.836;2023-08-08T07:11:59;2.37;;;1.57;;
6288;SDS011;3177;49.880;8.836;2023-08-08T07:14:26;2.10;;;1.40;;
6288;SDS011;3177;49.880;8.836;2023-08-08T07:16:53;3.60;;;1.30;;
6288;SDS011;3177;49.880;8.836;2023-08-08T07:19:20;1.87;;;1.60;;
6288;SDS011;3177;49.880;8.836;2023-08-08T07:21:48;2.07;;;1.40;;
6288;SDS011;3177;49.880;8.836;2023-08-08T07:24:15;2.23;;;1.37;;
6288;SDS011;3177;49.880;8.836;2023-08-08T07:26:43;1.53;;;1.43;;
6288;SDS011;3177;49.880;8.836;2023-08-08T07:29:10;4.00;;;1.38;;
6288;SDS011;3177;49.880;8.836;2023-08-08T07:31:37;2.13;;;1.17;;
6288;SDS011;3177;49.880;8.836;2023-08-08T07:34:04;1.80;;;1.30;;
6288;SDS011;3177;49.880;8.836;2023-08-08T07:36:31;3.55;;;1.30;;
6288;SDS011;3177;49.880;8.836;2023-08-08T07:38:59;1.63;;;1.30;;
6288;SDS011;3177;49.880;8.836;2023-08-08T07:41:26;1.60;;;1.13;;
6288;SDS011;3177;49.880;8.836;2023-08-08T07:43:54;1.65;;;1.50;;
6288;SDS011;3177;49.880;8.836;2023-08-08T07:46:21;1.50;;;1.40;;
6288;SDS011;3177;49.880;8.836;2023-08-08T07:48:49;2.17;;;1.60;;
6288;SDS011;3177;49.880;8.836;2023-08-08T07:51:16;3.67;;;1.23;;
6288;SDS011;3177;49.880;8.836;2023-08-08T07:53:43;2.88;;;1.40;;
6288;SDS011;3177;49.880;8.836;2023-08-08T07:56:10;2.10;;;1.08;;
6288;SDS011;3177;49.880;8.836;2023-08-08T07:58:37;1.67;;;1.33;;
6288;SDS011;3177;49.880;8.836;2023-08-08T08:01:06;3.88;;;1.40;;
6288;SDS011;3177;49.880;8.836;2023-08-08T08:03:33;1.40;;;1.30;;
6288;SDS011;3177;49.880;8.836;2023-08-08T08:06:00;2.25;;;1.20;;
6288;SDS011;3177;49.880;8.836;2023-08-08T08:08:27;2.03;;;1.40;;
6288;SDS011;3177;49.880;8.836;2023-08-08T08:10:54;1.35;;;1.00;;
6288;SDS011;3177;49.880;8.836;2023-08-08T08:13:21;4.57;;;0.98;;
6288;SDS011;3177;49.880;8.836;2023-08-08T08:15:48;1.95;;;1.40;;
6288;SDS011;3177;49.880;8.836;2023-08-08T08:18:17;1.40;;;1.30;;
6288;SDS011;3177;49.880;8.836;2023-08-08T08:20:45;3.72;;;1.23;;
6288;SDS011;3177;49.880;8.836;2023-08-08T08:23:12;1.67;;;1.13;;
6288;SDS011;3177;49.880;8.836;2023-08-08T08:25:39;3.08;;;1.23;;
6288;SDS011;3177;49.880;8.836;2023-08-08T08:28:06;3.53;;;1.20;;
6288;SDS011;3177;49.880;8.836;2023-08-08T08:30:33;1.30;;;1.20;;
6288;SDS011;3177;49.880;8.836;2023-08-08T08:33:02;1.58;;;1.48;;
6288;SDS011;3177;49.880;8.836;2023-08-08T08:35:30;1.83;;;1.10;;
6288;SDS011;3177;49.880;8.836;2023-08-08T08:37:57;1.30;;;1.20;;
6288;SDS011;3177;49.880;8.836;2023-08-08T08:40:24;1.33;;;1.23;;
6288;SDS011;3177;49.880;8.836;2023-08-08T08:42:52;1.25;;;1.08;;
6288;SDS011;3177;49.880;8.836;2023-08-08T08:45:19;1.40;;;1.15;;
6288;SDS011;3177;49.880;8.836;2023-08-08T08:47:47;2.63;;;1.42;;
6288;SDS011;3177;49.880;8.836;2023-08-08T08:50:15;2.22;;;1.17;;
6288;SDS011;3177;49.880;8.836;2023-08-08T08:52:43;1.55;;;1.10;;
6288;SDS011;3177;49.880;8.836;2023-08-08T08:55:13;2.63;;;1.23;;
6288;SDS011;3177;49.880;8.836;2023-08-08T08:57:40;2.17;;;1.25;;
6288;SDS011;3177;49.880;8.836;2023-08-08T09:00:10;6.25;;;2.45;;
6288;SDS011;3177;49.880;8.836;2023-08-08T09:02:37;2.28;;;1.20;;
6288;SDS011;3177;49.880;8.836;2023-08-08T09:05:04;1.70;;;1.40;;
6288;SDS011;3177;49.880;8.836;2023-08-08T09:07:32;1.25;;;1.15;;
6288;SDS011;3177;49.880;8.836;2023-08-08T09:10:01;1.58;;;1.13;;
6288;SDS011;3177;49.880;8.836;2023-08-08T09:12:28;0.90;;;0.80;;
6288;SDS011;3177;49.880;8.836;2023-08-08T09:14:56;1.58;;;1.20;;
6288;SDS011;3177;49.880;8.836;2023-08-08T09:17:24;1.15;;;0.95;;
6288;SDS011;3177;49.880;8.836;2023-08-08T09:19:52;1.45;;;0.90;;
6288;SDS011;3177;49.880;8.836;2023-08-08T09:22:20;1.92;;;1.20;;
6288;SDS011;3177;49.880;8.836;2023-08-08T09:24:48;1.92;;;0.95;;
6288;SDS011;3177;49.880;8.836;2023-08-08T09:27:17;2.30;;;1.15;;
6288;SDS011;3177;49.880;8.836;2023-08-08T09:29:44;1.15;;;0.93;;
6288;SDS011;3177;49.880;8.836;2023-08-08T09:32:11;2.70;;;1.20;;
6288;SDS011;3177;49.880;8.836;2023-08-08T09:34:40;0.90;;;0.90;;
6288;SDS011;3177;49.880;8.836;2023-08-08T09:37:07;2.28;;;1.20;;
6288;SDS011;3177;49.880;8.836;2023-08-08T09:39:35;1.63;;;1.48;;
6288;SDS011;3177;49.880;8.836;2023-08-08T09:42:03;2.45;;;1.00;;
6288;SDS011;3177;49.880;8.836;2023-08-08T09:44:31;3.08;;;1.20;;
6288;SDS011;3177;49.880;8.836;2023-08-08T09:47:00;1.63;;;0.93;;
6288;SDS011;3177;49.880;8.836;2023-08-08T09:49:28;1.90;;;1.33;;
6288;SDS011;3177;49.880;8.836;2023-08-08T09:51:56;1.33;;;0.90;;
6288;SDS011;3177;49.880;8.836;2023-08-08T09:54:24;1.55;;;0.80;;
6288;SDS011;3177;49.880;8.836;2023-08-08T09:56:52;1.63;;;1.10;;
6288;SDS011;3177;49.880;8.836;2023-08-08T09:59:20;0.85;;;0.85;;
6288;SDS011;3177;49.880;8.836;2023-08-08T10:01:48;0.98;;;0.93;;
6288;SDS011;3177;49.880;8.836;2023-08-08T10:04:16;0.80;;;0.80;;
6288;SDS011;3177;49.880;8.836;2023-08-08T10:06:43;2.38;;;1.38;;
6288;SDS011;3177;49.880;8.836;2023-08-08T10:09:10;1.58;;;1.45;;
6288;SDS011;3177;49.880;8.836;2023-08-08T10:11:38;1.17;;;1.08;;
6288;SDS011;3177;49.880;8.836;2023-08-08T10:14:07;1.25;;;1.15;;
6288;SDS011;3177;49.880;8.836;2023-08-08T10:16:36;2.13;;;0.88;;
6288;SDS011;3177;49.880;8.836;2023-08-08T10:19:05;1.75;;;0.85;;
6288;SDS011;3177;49.880;8.836;2023-08-08T10:21:33;1.40;;;1.20;;
6288;SDS011;3177;49.880;8.836;2023-08-08T10:24:00;1.27;;;1.10;;
6288;SDS011;3177;49.880;8.836;2023-08-08T10:26:28;3.78;;;1.25;;
6288;SDS011;3177;49.880;8.836;2023-08-08T10:28:55;3.80;;;1.08;;
6288;SDS011;3177;49.880;8.836;2023-08-08T10:31:23;2.03;;;1.58;;
6288;SDS011;3177;49.880;8.836;2023-08-08T10:33:59;2.72;;;1.35;;
6288;SDS011;3177;49.880;8.836;2023-08-08T10:36:42;4.30;;;1.10;;
6288;SDS011;3177;49.880;8.836;2023-08-08T10:39:10;3.15;;;1.30;;
6288;SDS011;3177;49.880;8.836;2023-08-08T10:41:43;1.73;;;1.20;;
6288;SDS011;3177;49.880;8.836;2023-08-08T10:44:11;1.20;;;1.10;;
6288;SDS011;3177;49.880;8.836;2023-08-08T10:46:39;1.30;;;1.20;;
6288;SDS011;3177;49.880;8.836;2023-08-08T10:49:07;1.60;;;1.00;;
6288;SDS011;3177;49.880;8.836;2023-08-08T10:51:38;2.17;;;1.20;;
6288;SDS011;3177;49.880;8.836;2023-08-08T10:54:09;2.08;;;1.05;;
6288;SDS011;3177;49.880;8.836;2023-08-08T10:56:38;2.72;;;1.33;;
6288;SDS011;3177;49.880;8.836;2023-08-08T10:59:13;2.63;;;1.27;;
6288;SDS011;3177;49.880;8.836;2023-08-08T11:01:41;2.08;;;1.20;;
6288;SDS011;3177;49.880;8.836;2023-08-08T11:04:09;2.95;;;1.30;;
6288;SDS011;3177;49.880;8.836;2023-08-08T11:06:38;1.00;;;1.00;;
6288;SDS011;3177;49.880;8.836;2023-08-08T11:09:06;1.13;;;1.02;;
6288;SDS011;3177;49.880;8.836;2023-08-08T11:11:35;2.28;;;1.30;;
6288;SDS011;3177;49.880;8.836;2023-08-08T11:14:08;1.40;;;1.20;;
6288;SDS011;3177;49.880;8.836;2023-08-08T11:16:35;1.38;;;0.95;;
6288;SDS011;3177;49.880;8.836;2023-08-08T11:19:02;3.20;;;1.50;;
6288;SDS011;3177;49.880;8.836;2023-08-08T11:21:30;1.80;;;1.20;;
6288;SDS011;3177;49.880;8.836;2023-08-08T11:23:58;0.93;;;0.80;;
6288;SDS011;3177;49.880;8.836;2023-08-08T11:26:25;3.47;;;1.40;;
6288;SDS011;3177;49.880;8.836;2023-08-08T11:28:56;1.48;;;1.05;;
6288;SDS011;3177;49.880;8.836;2023-08-08T11:31:24;2.75;;;1.50;;
6288;SDS011;3177;49.880;8.836;2023-08-08T11:33:52;1.20;;;1.10;;
6288;SDS011;3177;49.880;8.836;2023-08-08T11:36:19;3.10;;;0.95;;
6288;SDS011;3177;49.880;8.836;2023-08-08T11:38:47;2.28;;;1.50;;
6288;SDS011;3177;49.880;8.836;2023-08-08T11:41:16;1.88;;;0.88;;
6288;SDS011;3177;49.880;8.836;2023-08-08T11:43:44;3.00;;;1.40;;
6288;SDS011;3177;49.880;8.836;2023-08-08T11:46:12;1.67;;;1.05;;
6288;SDS011;3177;49.880;8.836;2023-08-08T11:48:40;3.40;;;1.38;;
6288;SDS011;3177;49.880;8.836;2023-08-08T11:51:07;1.65;;;1.15;;
6288;SDS011;3177;49.880;8.836;2023-08-08T11:53:34;1.65;;;1.20;;
6288;SDS011;3177;49.880;8.836;2023-08-08T11:56:02;1.83;;;1.35;;
6288;SDS011;3177;49.880;8.836;2023-08-08T11:58:31;1.73;;;1.10;;
6288;SDS011;3177;49.880;8.836;2023-08-08T12:00:58;1.83;;;1.08;;
6288;SDS011;3177;49.880;8.836;2023-08-08T12:03:25;1.80;;;0.85;;
6288;SDS011;3177;49.880;8.836;2023-08-08T12:05:52;3.03;;;1.27;;
6288;SDS011;3177;49.880;8.836;2023-08-08T12:08:19;1.20;;;0.93;;
6288;SDS011;3177;49.880;8.836;2023-08-08T12:10:48;1.85;;;1.17;;
6288;SDS011;3177;49.880;8.836;2023-08-08T12:13:19;2.28;;;1.45;;
6288;SDS011;3177;49.880;8.836;2023-08-08T12:15:48;1.85;;;1.30;;
6288;SDS011;3177;49.880;8.836;2023-08-08T12:18:16;1.88;;;1.10;;
6288;SDS011;3177;49.880;8.836;2023-08-08T12:20:43;2.10;;;1.25;;
6288;SDS011;3177;49.880;8.836;2023-08-08T12:23:10;2.53;;;1.40;;
6288;SDS011;3177;49.880;8.836;2023-08-08T12:25:37;1.30;;;1.20;;
6288;SDS011;3177;49.880;8.836;2023-08-08T12:28:05;2.28;;;1.02;;
6288;SDS011;3177;49.880;8.836;2023-08-08T12:30:32;1.17;;;1.00;;
6288;SDS011;3177;49.880;8.836;2023-08-08T12:33:01;1.75;;;1.60;;
6288;SDS011;3177;49.880;8.836;2023-08-08T12:35:28;2.22;;;1.27;;
6288;SDS011;3177;49.880;8.836;2023-08-08T12:37:55;1.77;;;1.00;;
6288;SDS011;3177;49.880;8.836;2023-08-08T12:40:22;2.13;;;1.10;;
6288;SDS011;3177;49.880;8.836;2023-08-08T12:42:50;2.55;;;1.33;;
6288;SDS011;3177;49.880;8.836;2023-08-08T12:45:17;1.23;;;1.08;;
6288;SDS011;3177;49.880;8.836;2023-08-08T12:47:44;3.08;;;1.30;;
6288;SDS011;3177;49.880;8.836;2023-08-08T12:50:12;2.70;;;1.23;;
6288;SDS011;3177;49.880;8.836;2023-08-08T12:52:40;2.22;;;1.20;;
6288;SDS011;3177;49.880;8.836;2023-08-08T12:55:07;5.57;;;1.38;;
6288;SDS011;3177;49.880;8.836;2023-08-08T12:57:36;2.88;;;1.83;;
6288;SDS011;3177;49.880;8.836;2023-08-08T13:00:04;1.67;;;1.05;;
6288;SDS011;3177;49.880;8.836;2023-08-08T13:02:33;1.73;;;1.13;;
6288;SDS011;3177;49.880;8.836;2023-08-08T13:05:01;1.25;;;1.15;;
6288;SDS011;3177;49.880;8.836;2023-08-08T13:07:32;1.50;;;1.20;;
6288;SDS011;3177;49.880;8.836;2023-08-08T13:09:59;3.05;;;1.13;;
6288;SDS011;3177;49.880;8.836;2023-08-08T13:12:26;1.95;;;1.00;;
6288;SDS011;3177;49.880;8.836;2023-08-08T13:14:53;1.98;;;1.30;;
6288;SDS011;3177;49.880;8.836;2023-08-08T13:17:21;1.45;;;0.93;;
6288;SDS011;3177;49.880;8.836;2023-08-08T13:19:48;1.92;;;1.30;;
6288;SDS011;3177;49.880;8.836;2023-08-08T13:22:15;2.85;;;1.20;;
6288;SDS011;3177;49.880;8.836;2023-08-08T13:24:43;1.95;;;1.02;;
6288;SDS011;3177;49.880;8.836;2023-08-08T13:27:10;1.85;;;1.45;;
6288;SDS011;3177;49.880;8.836;2023-08-08T13:29:37;1.67;;;1.35;;
6288;SDS011;3177;49.880;8.836;2023-08-08T13:32:04;1.02;;;0.93;;
6288;SDS011;3177;49.880;8.836;2023-08-08T13:34:31;1.83;;;1.67;;
6288;SDS011;3177;49.880;8.836;2023-08-08T13:36:59;1.58;;;1.17;;
6288;SDS011;3177;49.880;8.836;2023-08-08T13:39:26;1.02;;;0.98;;
6288;SDS011;3177;49.880;8.836;2023-08-08T13:41:54;1.48;;;1.10;;
6288;SDS011;3177;49.880;8.836;2023-08-08T13:44:21;0.90;;;0.90;;
6288;SDS011;3177;49.880;8.836;2023-08-08T13:46:48;2.40;;;1.65;;
6288;SDS011;3177;49.880;8.836;2023-08-08T13:49:16;2.20;;;1.10;;
6288;SDS011;3177;49.880;8.836;2023-08-08T13:51:43;2.15;;;1.10;;
6288;SDS011;3177;49.880;8.836;2023-08-08T13:54:10;2.13;;;1.20;;
6288;SDS011;3177;49.880;8.836;2023-08-08T13:56:37;1.20;;;1.10;;
6288;SDS011;3177;49.880;8.836;2023-08-08T13:59:06;2.17;;;1.10;;
6288;SDS011;3177;49.880;8.836;2023-08-08T14:01:33;0.98;;;0.90;;
6288;SDS011;3177;49.880;8.836;2023-08-08T14:04:00;1.70;;;1.20;;
6288;SDS011;3177;49.880;8.836;2023-08-08T14:06:27;1.67;;;1.20;;
6288;SDS011;3177;49.880;8.836;2023-08-08T14:08:55;1.27;;;1.17;;
6288;SDS011;3177;49.880;8.836;2023-08-08T14:11:22;2.20;;;1.10;;
6288;SDS011;3177;49.880;8.836;2023-08-08T14:13:49;1.88;;;1.63;;
6288;SDS011;3177;49.880;8.836;2023-08-08T14:16:17;2.58;;;1.17;;
6288;SDS011;3177;49.880;8.836;2023-08-08T14:18:44;1.38;;;1.27;;
6288;SDS011;3177;49.880;8.836;2023-08-08T14:21:11;2.28;;;1.23;;
6288;SDS011;3177;49.880;8.836;2023-08-08T14:23:38;1.33;;;0.90;;
6288;SDS011;3177;49.880;8.836;2023-08-08T14:26:05;1.80;;;0.95;;
6288;SDS011;3177;49.880;8.836;2023-08-08T14:28:33;1.55;;;0.80;;
6288;SDS011;3177;49.880;8.836;2023-08-08T14:31:00;2.00;;;1.13;;
6288;SDS011;3177;49.880;8.836;2023-08-08T14:33:28;1.30;;;0.95;;
6288;SDS011;3177;49.880;8.836;2023-08-08T14:35:55;1.20;;;1.10;;
6288;SDS011;3177;49.880;8.836;2023-08-08T14:38:23;3.08;;;1.35;;
6288;SDS011;3177;49.880;8.836;2023-08-08T14:40:50;2.28;;;1.20;;
6288;SDS011;3177;49.880;8.836;2023-08-08T14:43:18;1.65;;;1.00;;
6288;SDS011;3177;49.880;8.836;2023-08-08T14:45:45;1.27;;;0.93;;
6288;SDS011;3177;49.880;8.836;2023-08-08T14:48:12;2.38;;;1.33;;
6288;SDS011;3177;49.880;8.836;2023-08-08T14:50:41;1.00;;;1.00;;
6288;SDS011;3177;49.880;8.836;2023-08-08T14:53:08;2.22;;;1.30;;
6288;SDS011;3177;49.880;8.836;2023-08-08T14:55:35;1.75;;;1.08;;
6288;SDS011;3177;49.880;8.836;2023-08-08T14:58:02;2.30;;;1.20;;
6288;SDS011;3177;49.880;8.836;2023-08-08T15:00:29;0.85;;;0.85;;
6288;SDS011;3177;49.880;8.836;2023-08-08T15:02:56;2.03;;;1.13;;
6288;SDS011;3177;49.880;8.836;2023-08-08T15:05:23;2.38;;;1.50;;
6288;SDS011;3177;49.880;8.836;2023-08-08T15:07:51;2.53;;;1.20;;
6288;SDS011;3177;49.880;8.836;2023-08-08T15:10:18;2.90;;;1.17;;
6288;SDS011;3177;49.880;8.836;2023-08-08T15:12:45;1.55;;;1.10;;
6288;SDS011;3177;49.880;8.836;2023-08-08T15:15:13;2.65;;;1.10;;
6288;SDS011;3177;49.880;8.836;2023-08-08T15:17:41;1.05;;;0.98;;